Terminal Aerodrome Forecast
Issued by NWS

Current Version | Previous Version | Text Only | Print | Product List | Glossary Off
Versions: 1 2 3 4 5 6 7 8 9 10 11 12 13 14 15 16 17 18 19 20 21 22 23 24 25 26 27 28 29 30 31 32 33 34 35 36 37 38 39 40 41 42 43

000
FTUS41 KRNK 311740
TAFLWB
TAF
KLWB 311740Z 3118/0118 28003KT P6SM FEW040 BKN250
     FM010000 00000KT P6SM SCT045 BKN100
     FM010500 00000KT 6SM -RA BR SCT035 OVC080
     FM011000 VRB03KT 5SM -RA BR FEW015 OVC025
     FM011400 13001KT 4SM RA BR SCT008 OVC012=

USA.gov is the U.S. government's official web portal to all federal, state and local government web resources and services.